Harlow, North Dakota
Current Conditions -  °F | °C
As of 6:35 PM on Monday 24 Nov 2014 (Local Time) from K9D7 Reporting Station
Overcast Overcast  
Wind Chill:   Ceiling: 9500
Heat Index: 14°   Visibility: 10mi
Dew Point:   Wind: 9mph
Humidity: 62%   Direction: 280°W
Pressure: 29.94"   Gusts: NA
Location:  48.2518°N, 99.4309°W
Report Text: K9D7 250035Z AUTO 28008KT 10SM SCT060 OVC095 M10/M16 A2994 RMK AO2
Loading
Personal Weather Stations






























Interactive Weather Map New forecast layout! Learn more

10-Day Weather Forecast

Advertisements
Track Severe Weather on mobile